»·PEaware :: N427LJ KVGT-KIFP

N427LJ :: KVGT-KIFP

FLIGHT INFORMATION

Flight Status: Arrived
Operator: Privately registered:
United States
More flights under this callsign
Pilot: Anonymous 27948 (27948)
Aircraft: CESSNA 172 SKYHAWK
(C172)
More flights by this aircraft type
Origin: KVGT North Las Vegas
United States
Destination: KIFP Laughlin/Bullhead Intl
United States
More flights between these airports :: More routes between these airports
Route: NOTWN5 LAS BLD V237 UNPAS
File this flight plan on PilotEdge
Remarks:
Altitude:
(Current/Filed)
9,000ft
Speed:
(Current/Filed)
120kts
Departed: 12-Jul-20 01:45 PM
Arrived: 12-Jul-20 02:31 PM
Distance/Time
Traveled:
71nm/0:46
Distance/Time
To Go:
Arrived

Flight Plot

Page will automatically refresh every two minutes.

Flight plan parsing failed; only flown route is shown


Map Options




Map Legend


Flown Route
Filed Route
Departure Airport
Arrival Airport
Navaid (VOR, NDB)
Fix

Horizontal Profiles

Position Reports

Time Latitude Longitude Heading Altitude Ground
Speed
12-Jul-20 13:11 36.209271 -115.198765 314 2196ft 0kts
12-Jul-20 13:12 36.209271 -115.198765 314 2196ft 0kts
12-Jul-20 13:13 36.209271 -115.198765 314 2196ft 0kts
12-Jul-20 13:14 36.209271 -115.198765 314 2196ft 0kts
12-Jul-20 13:15 36.209271 -115.198765 314 2196ft 0kts
12-Jul-20 13:16 36.209271 -115.198765 314 2196ft 0kts
12-Jul-20 13:17 36.209271 -115.198765 314 2196ft 0kts
12-Jul-20 13:18 36.209271 -115.198765 314 2196ft 0kts
12-Jul-20 13:19 36.209271 -115.198765 314 2196ft 0kts
12-Jul-20 13:20 36.209271 -115.198765 314 2196ft 0kts
12-Jul-20 13:21 36.209271 -115.198765 314 2196ft 0kts
12-Jul-20 13:22 36.209271 -115.198765 314 2196ft 0kts
12-Jul-20 13:23 36.209271 -115.198765 314 2196ft 0kts
12-Jul-20 13:24 36.209271 -115.198765 314 2196ft 0kts
12-Jul-20 13:25 36.209271 -115.198765 314 2196ft 0kts
12-Jul-20 13:26 36.209271 -115.198765 314 2196ft 0kts
12-Jul-20 13:27 36.209271 -115.198765 314 2196ft 0kts
12-Jul-20 13:28 36.209271 -115.198765 314 2196ft 0kts
12-Jul-20 13:29 36.209271 -115.198765 314 2196ft 0kts
12-Jul-20 13:30 36.209271 -115.198765 314 2196ft 0kts
12-Jul-20 13:31 36.209271 -115.198765 314 2196ft 0kts
12-Jul-20 13:32 36.209271 -115.198765 314 2196ft 0kts
12-Jul-20 13:33 36.209271 -115.198765 314 2196ft 0kts
12-Jul-20 13:34 36.209271 -115.198765 314 2196ft 0kts
12-Jul-20 13:35 36.209271 -115.198765 314 2196ft 0kts
12-Jul-20 13:36 36.210290 -115.198620 25 2197ft 5kts
12-Jul-20 13:37 36.212284 -115.200816 315 2204ft 9kts
12-Jul-20 13:38 36.212775 -115.203300 341 2208ft 7kts
12-Jul-20 13:39 36.213966 -115.203425 22 2209ft 0kts
12-Jul-20 13:40 36.213966 -115.203425 22 2209ft 0kts
12-Jul-20 13:41 36.214077 -115.203300 44 2208ft 0kts
12-Jul-20 13:42 36.214077 -115.203300 44 2208ft 0kts
12-Jul-20 13:43 36.214217 -115.202073 135 2206ft 30kts
12-Jul-20 13:44 36.197804 -115.189782 199 2924ft 76kts
12-Jul-20 13:45 36.190635 -115.213839 260 3770ft 79kts
12-Jul-20 13:46 36.194174 -115.238536 321 4581ft 80kts
12-Jul-20 13:47 36.212911 -115.256146 322 5261ft 92kts
12-Jul-20 13:48 36.233105 -115.275180 316 5988ft 92kts
12-Jul-20 13:49 36.244341 -115.271015 122 6753ft 78kts
12-Jul-20 13:50 36.223629 -115.262754 173 7372ft 82kts
12-Jul-20 13:51 36.201325 -115.252533 151 7963ft 87kts
12-Jul-20 13:52 36.180270 -115.237112 148 8544ft 89kts
12-Jul-20 13:53 36.159120 -115.220881 148 9080ft 92kts
12-Jul-20 13:54 36.133362 -115.201091 148 9102ft 118kts
12-Jul-20 13:55 36.104331 -115.178727 148 9100ft 125kts
12-Jul-20 13:56 36.078238 -115.150449 115 9101ft 129kts
12-Jul-20 13:57 36.065293 -115.108497 109 9100ft 131kts
12-Jul-20 13:58 36.053221 -115.065848 109 9100ft 131kts
12-Jul-20 13:59 36.041145 -115.023168 109 9100ft 131kts
12-Jul-20 14:00 36.029051 -114.980491 109 9100ft 131kts
12-Jul-20 14:01 36.016929 -114.937779 109 9100ft 131kts
12-Jul-20 14:03 36.004807 -114.895137 109 9100ft 131kts
12-Jul-20 14:04 35.983713 -114.861149 157 9100ft 131kts
12-Jul-20 14:05 35.948762 -114.848440 165 9100ft 131kts
12-Jul-20 14:06 35.913322 -114.837024 165 9100ft 131kts
12-Jul-20 14:07 35.877797 -114.825621 165 9100ft 131kts
12-Jul-20 14:08 35.842390 -114.814263 165 9100ft 131kts
12-Jul-20 14:09 35.806988 -114.802895 165 9100ft 131kts
12-Jul-20 14:10 35.771652 -114.791573 165 9100ft 131kts
12-Jul-20 14:11 35.736164 -114.780221 165 9100ft 131kts
12-Jul-20 14:12 35.700728 -114.768898 165 9100ft 131kts
12-Jul-20 14:13 35.665327 -114.757598 165 9124ft 129kts
12-Jul-20 14:14 35.631300 -114.746754 165 9247ft 129kts
12-Jul-20 14:15 35.596103 -114.735586 165 9247ft 131kts
12-Jul-20 14:16 35.560744 -114.724354 165 9247ft 131kts
12-Jul-20 14:17 35.525379 -114.713119 165 9247ft 131kts
12-Jul-20 14:18 35.491072 -114.702276 165 8978ft 115kts
12-Jul-20 14:18 35.463991 -114.693678 165 8487ft 129kts
12-Jul-20 14:20 35.424683 -114.681194 165 8245ft 115kts
12-Jul-20 14:21 35.394145 -114.671531 165 7679ft 116kts
12-Jul-20 14:21 35.368361 -114.663342 163 6892ft 115kts
12-Jul-20 14:23 35.337459 -114.637176 143 5373ft 117kts
12-Jul-20 14:23 35.314274 -114.620861 154 4286ft 116kts
12-Jul-20 14:24 35.285685 -114.603569 153 3244ft 111kts
12-Jul-20 14:26 35.256720 -114.585954 153 2774ft 96kts
12-Jul-20 14:26 35.235798 -114.577921 169 2106ft 95kts
12-Jul-20 14:27 35.212125 -114.570285 158 1650ft 81kts
12-Jul-20 14:28 35.190934 -114.562130 170 1285ft 76kts
12-Jul-20 14:29 35.169902 -114.560445 176 819ft 69kts
12-Jul-20 14:30 35.158384 -114.559612 174 705ft 28kts
12-Jul-20 14:31 35.155909 -114.558249 85 705ft 6kts
12-Jul-20 14:32 35.157343 -114.556026 260 705ft 0kts

Navigation Log

Ident Type
Flight plan parsing failed, navigation log unavailable